createdAt,value
2024-05-09T00:01:13.200Z,21.83
2024-05-09T00:06:59.963Z,20.48
2024-05-09T00:12:46.801Z,22.55
2024-05-09T00:24:37.745Z,24.95
2024-05-09T00:30:33.143Z,20.63
2024-05-09T00:36:22.710Z,23.48
2024-05-09T00:42:09.433Z,21.17
2024-05-09T00:47:57.030Z,20.33
2024-05-09T00:53:44.332Z,20.42
2024-05-09T00:59:33.024Z,21.55
2024-05-09T01:05:19.980Z,20.10
2024-05-09T01:11:07.855Z,21.58
2024-05-09T01:16:55.131Z,21.98
2024-05-09T01:22:44.491Z,19.23
2024-05-09T01:28:31.396Z,20.58
2024-05-09T01:34:18.990Z,19.30
2024-05-09T01:40:12.181Z,19.85
2024-05-09T01:46:01.850Z,19.90
2024-05-09T01:51:48.720Z,19.67
2024-05-09T01:57:35.571Z,563.97
2024-05-09T02:03:22.493Z,790.83
2024-05-09T02:09:09.825Z,785.40
2024-05-09T02:14:56.685Z,782.33
2024-05-09T02:20:44.085Z,22.35
2024-05-09T02:26:31.160Z,21.17
2024-05-09T02:32:18.078Z,21.67
2024-05-09T02:38:05.328Z,20.25
2024-05-09T02:43:52.134Z,19.90
2024-05-09T02:49:39.108Z,20.80
2024-05-09T02:55:25.962Z,565.78
2024-05-09T03:01:20.009Z,22.05
2024-05-09T03:07:06.991Z,20.38
2024-05-09T03:12:53.835Z,21.27
2024-05-09T03:18:40.697Z,20.80
2024-05-09T03:24:30.513Z,22.52
2024-05-09T03:30:29.200Z,21.00
2024-05-09T03:36:23.068Z,21.40
2024-05-09T03:42:09.814Z,22.80
2024-05-09T03:47:56.953Z,20.85
2024-05-09T03:53:44.021Z,21.05
2024-05-09T03:59:33.616Z,21.98
2024-05-09T04:05:20.891Z,20.60
2024-05-09T04:11:07.826Z,19.63
2024-05-09T04:16:54.830Z,22.35
2024-05-09T04:22:41.633Z,20.98
2024-05-09T04:28:29.660Z,18.58
2024-05-09T04:34:17.098Z,18.33
2024-05-09T04:40:07.017Z,21.40
2024-05-09T04:45:55.711Z,15.40
2024-05-09T04:51:42.614Z,20.00
2024-05-09T04:57:29.484Z,20.40
2024-05-09T05:03:20.167Z,20.25
2024-05-09T05:09:07.454Z,21.80
2024-05-09T05:14:54.264Z,19.75
2024-05-09T05:20:44.624Z,19.83
2024-05-09T05:26:31.946Z,19.17
2024-05-09T05:32:19.955Z,20.30
2024-05-09T05:38:08.405Z,21.00
2024-05-09T05:43:55.497Z,19.58
2024-05-09T05:49:45.457Z,23.90
2024-05-09T05:55:40.596Z,20.42
2024-05-09T06:01:28.006Z,21.92
2024-05-09T06:07:15.163Z,20.30
2024-05-09T06:13:04.710Z,19.80
2024-05-09T06:18:52.295Z,22.10
2024-05-09T06:24:39.391Z,26.00
2024-05-09T06:31:01.355Z,21.67
2024-05-09T06:36:48.714Z,20.03
2024-05-09T06:42:35.608Z,17.75
2024-05-09T06:48:23.059Z,24.00
2024-05-09T06:54:10.440Z,22.67
2024-05-09T06:59:59.914Z,20.67
2024-05-09T07:05:48.664Z,21.17
2024-05-09T07:11:37.602Z,22.85
2024-05-09T07:17:24.794Z,20.95
2024-05-09T07:23:12.770Z,21.88
2024-05-09T07:29:01.069Z,23.27
2024-05-09T07:34:47.879Z,20.38
2024-05-09T07:40:38.792Z,20.45
2024-05-09T07:47:20.733Z,21.20
2024-05-09T07:53:33.081Z,19.13
2024-05-09T07:58:46.694Z,17.80
2024-05-09T08:04:34.138Z,16.52
2024-05-09T08:10:24.674Z,17.92
2024-05-09T08:16:16.491Z,22.20
2024-05-09T08:22:07.155Z,19.33
2024-05-09T08:27:54.505Z,20.88
2024-05-09T08:33:48.371Z,17.92
2024-05-09T08:39:35.654Z,21.00
2024-05-09T08:45:31.728Z,21.38
2024-05-09T08:51:18.808Z,21.23
2024-05-09T08:57:06.649Z,20.88
2024-05-09T09:02:55.176Z,21.15
2024-05-09T09:08:46.809Z,20.83
2024-05-09T09:14:34.257Z,22.33
2024-05-09T09:20:26.433Z,22.38
2024-05-09T09:26:40.585Z,20.10
2024-05-09T09:32:30.664Z,19.48
2024-05-09T09:38:21.609Z,19.67
2024-05-09T09:44:09.958Z,20.35
2024-05-09T09:49:58.449Z,20.23
2024-05-09T09:55:46.678Z,17.88
2024-05-09T10:01:35.222Z,20.85
2024-05-09T10:07:23.262Z,18.38
2024-05-09T10:13:10.405Z,21.10
2024-05-09T10:18:57.817Z,18.85
2024-05-09T10:24:47.794Z,17.73
2024-05-09T10:30:36.358Z,19.58
2024-05-09T10:36:25.593Z,17.65
2024-05-09T10:42:12.522Z,20.33
2024-05-09T10:48:00.105Z,26.98
2024-05-09T10:53:48.375Z,18.77
2024-05-09T10:59:39.468Z,20.63
2024-05-09T11:05:27.324Z,22.88
2024-05-09T11:11:16.782Z,24.73
2024-05-09T11:17:06.433Z,25.35
2024-05-09T11:22:53.569Z,28.23
2024-05-09T11:28:44.176Z,21.00
2024-05-09T11:34:31.124Z,21.35
2024-05-09T11:40:25.212Z,16.40
2024-05-09T11:46:15.723Z,26.25
2024-05-09T11:52:03.034Z,20.42
2024-05-09T11:57:50.055Z,20.02
2024-05-09T12:03:37.989Z,21.02
2024-05-09T12:09:25.479Z,22.20
2024-05-09T12:15:12.731Z,21.98
2024-05-09T12:21:00.708Z,22.38
2024-05-09T12:26:51.335Z,21.95
2024-05-09T12:32:39.923Z,22.65
2024-05-09T12:38:27.172Z,18.80
2024-05-09T12:44:14.094Z,20.85
2024-05-09T12:50:01.266Z,23.90
2024-05-09T12:55:56.269Z,23.88
2024-05-09T13:01:46.791Z,18.92
2024-05-09T13:07:35.153Z,16.63
2024-05-09T13:13:22.334Z,13.55
2024-05-09T13:19:09.547Z,15.63
2024-05-09T13:24:56.797Z,18.45
2024-05-09T13:30:44.034Z,20.00
2024-05-09T13:36:31.300Z,18.77
2024-05-09T13:42:18.377Z,17.38
2024-05-09T13:48:07.185Z,19.25
2024-05-09T13:53:56.128Z,15.40
2024-05-09T13:59:43.677Z,23.98
2024-05-09T14:05:31.232Z,20.08
2024-05-09T14:11:19.837Z,17.63
2024-05-09T14:17:07.123Z,24.50
2024-05-09T14:22:54.415Z,20.98
2024-05-09T14:28:41.569Z,20.73
2024-05-09T14:34:28.664Z,19.38
2024-05-09T14:40:30.474Z,17.77
2024-05-09T14:46:22.910Z,19.42
2024-05-09T14:52:10.273Z,18.42
2024-05-09T14:57:57.587Z,22.27
2024-05-09T15:03:44.540Z,18.38
2024-05-09T15:09:37.921Z,22.50
2024-05-09T15:15:24.999Z,23.33
2024-05-09T15:21:11.986Z,16.70
2024-05-09T15:26:59.606Z,14.73
2024-05-09T15:32:47.667Z,22.60
2024-05-09T15:38:35.895Z,18.90
2024-05-09T15:44:24.019Z,18.92
2024-05-09T15:50:20.212Z,14.98
2024-05-09T15:56:14.872Z,16.63
2024-05-09T16:02:06.725Z,14.82
2024-05-09T16:07:54.058Z,15.93
2024-05-09T16:13:40.898Z,15.55
2024-05-09T16:19:40.240Z,14.95
2024-05-09T16:26:15.453Z,17.42
2024-05-09T16:32:11.432Z,16.33
2024-05-09T16:37:58.700Z,17.00
2024-05-09T16:43:45.587Z,17.23
2024-05-09T16:49:35.455Z,18.08
2024-05-09T16:55:22.492Z,21.08
2024-05-09T17:01:09.499Z,12.13
2024-05-09T17:06:56.891Z,16.27
2024-05-09T17:12:43.803Z,17.52
2024-05-09T17:18:34.202Z,17.25
2024-05-09T17:24:47.441Z,15.65
2024-05-09T17:37:01.541Z,13.48
2024-05-09T17:42:54.680Z,17.17
2024-05-09T17:48:42.354Z,16.27
2024-05-09T17:54:29.739Z,15.80
2024-05-09T18:00:28.848Z,16.55
2024-05-09T18:06:23.602Z,15.20
2024-05-09T18:12:10.552Z,20.13
2024-05-09T18:17:57.571Z,20.80
2024-05-09T18:23:44.771Z,20.08
2024-05-09T18:29:32.326Z,19.40
2024-05-09T18:35:19.472Z,19.23
2024-05-09T18:41:06.444Z,20.48
2024-05-09T18:46:53.780Z,21.58
2024-05-09T18:52:41.478Z,21.20
2024-05-09T18:58:28.877Z,35.42
2024-05-09T19:04:18.550Z,19.73
2024-05-09T19:10:11.873Z,19.00
2024-05-09T19:16:09.449Z,18.88
2024-05-09T19:21:58.527Z,19.97
2024-05-09T19:27:47.115Z,18.35
2024-05-09T19:33:37.038Z,17.40
2024-05-09T19:39:26.126Z,18.52
2024-05-09T19:45:13.456Z,20.23
2024-05-09T19:51:00.790Z,19.02
2024-05-09T19:56:49.017Z,18.27
2024-05-09T20:02:35.995Z,18.13
2024-05-09T20:08:28.380Z,20.88
2024-05-09T20:14:15.386Z,19.42
2024-05-09T20:20:07.491Z,17.42
2024-05-09T20:26:14.207Z,18.55
2024-05-09T20:32:04.686Z,20.80
2024-05-09T20:37:57.999Z,17.80
2024-05-09T20:43:44.957Z,18.55
2024-05-09T20:49:31.931Z,24.67
2024-05-09T20:55:19.211Z,20.33
2024-05-09T21:01:14.952Z,16.30
2024-05-09T21:07:02.158Z,15.38
2024-05-09T21:12:49.468Z,20.83
2024-05-09T21:18:36.902Z,16.30
2024-05-09T21:24:24.006Z,16.42
2024-05-09T21:30:18.429Z,15.88
2024-05-09T21:36:10.130Z,17.00
2024-05-09T21:42:01.692Z,18.55
2024-05-09T21:47:48.852Z,17.47
2024-05-09T21:53:43.109Z,19.35
2024-05-09T21:59:33.474Z,19.75
2024-05-09T22:05:20.380Z,20.45
2024-05-09T22:11:10.253Z,17.08
2024-05-09T22:17:00.359Z,16.52
2024-05-09T22:22:47.279Z,15.48
2024-05-09T22:28:34.714Z,15.20
2024-05-09T22:34:23.837Z,18.80
2024-05-09T22:40:15.105Z,16.90
2024-05-09T22:46:07.108Z,17.92
2024-05-09T22:51:53.877Z,18.95
2024-05-09T22:57:40.980Z,19.30
2024-05-09T23:03:28.109Z,17.15
2024-05-09T23:09:15.071Z,16.55
2024-05-09T23:15:01.905Z,19.35
2024-05-09T23:20:48.705Z,15.38
2024-05-09T23:26:35.533Z,18.35
2024-05-09T23:32:22.424Z,18.65
2024-05-09T23:38:09.414Z,18.00
2024-05-09T23:43:56.223Z,16.08
2024-05-09T23:49:42.933Z,22.35
2024-05-09T23:55:31.211Z,19.38
